createdAt,value
2023-03-29T00:01:00.172Z,59.81
2023-03-29T00:03:28.990Z,59.32
2023-03-29T00:06:03.145Z,59.67
2023-03-29T00:08:31.580Z,59.70
2023-03-29T00:10:59.660Z,60.22
2023-03-29T00:13:27.650Z,59.88
2023-03-29T00:15:57.665Z,59.91
2023-03-29T00:18:26.893Z,60.47
2023-03-29T00:21:00.773Z,60.49
2023-03-29T00:23:31.234Z,60.82
2023-03-29T00:26:01.050Z,61.33
2023-03-29T00:28:31.316Z,60.18
2023-03-29T00:31:24.886Z,60.80
2023-03-29T00:33:52.188Z,59.82
2023-03-29T00:36:19.071Z,59.51
2023-03-29T00:38:46.049Z,58.63
2023-03-29T00:41:13.110Z,59.74
2023-03-29T00:44:00.340Z,59.98
2023-03-29T00:46:30.548Z,59.38
2023-03-29T00:49:12.699Z,59.77
2023-03-29T00:51:41.468Z,58.61
2023-03-29T00:54:14.818Z,58.76
2023-03-29T00:56:48.000Z,60.50
2023-03-29T00:59:23.127Z,60.16
2023-03-29T01:02:11.753Z,60.41
2023-03-29T01:04:46.718Z,60.27
2023-03-29T01:07:53.626Z,60.20
2023-03-29T01:10:37.946Z,59.70
2023-03-29T01:13:14.843Z,59.88
2023-03-29T01:15:45.503Z,59.90
2023-03-29T01:18:12.812Z,60.03
2023-03-29T01:21:25.274Z,60.19
2023-03-29T01:24:10.930Z,59.33
2023-03-29T01:27:03.675Z,59.50
2023-03-29T01:29:34.605Z,59.56
2023-03-29T01:32:51.991Z,59.90
2023-03-29T01:35:32.533Z,59.99
2023-03-29T01:38:18.573Z,59.61
2023-03-29T01:40:45.437Z,60.80
2023-03-29T01:43:33.502Z,60.73
2023-03-29T01:46:09.186Z,60.07
2023-03-29T01:48:50.082Z,60.11
2023-03-29T01:51:36.331Z,61.56
2023-03-29T01:54:21.790Z,61.50
2023-03-29T01:56:51.804Z,61.74
2023-03-29T01:59:23.855Z,62.50
2023-03-29T02:01:57.396Z,61.29
2023-03-29T02:04:38.792Z,60.76
2023-03-29T02:07:08.847Z,61.00
2023-03-29T02:09:40.245Z,60.66
2023-03-29T02:12:09.244Z,61.98
2023-03-29T02:14:36.467Z,61.97
2023-03-29T02:17:27.518Z,62.47
2023-03-29T02:20:14.929Z,62.55
2023-03-29T02:22:58.576Z,62.85
2023-03-29T02:25:26.008Z,63.40
2023-03-29T02:27:53.412Z,63.46
2023-03-29T02:30:21.630Z,63.08
2023-03-29T02:33:14.804Z,64.58
2023-03-29T02:36:08.181Z,64.83
2023-03-29T02:38:36.321Z,65.10
2023-03-29T02:41:06.199Z,65.23
2023-03-29T02:43:37.056Z,64.94
2023-03-29T02:46:07.660Z,64.34
2023-03-29T02:48:38.646Z,64.45
2023-03-29T02:51:20.277Z,65.02
2023-03-29T02:54:06.056Z,65.32
2023-03-29T02:56:46.146Z,65.85
2023-03-29T02:59:14.322Z,65.26
2023-03-29T03:01:46.954Z,65.68
2023-03-29T03:04:17.372Z,65.71
2023-03-29T03:06:46.713Z,65.55
2023-03-29T03:09:14.612Z,65.89
2023-03-29T03:11:41.736Z,66.36
2023-03-29T03:14:08.760Z,67.36
2023-03-29T03:16:36.985Z,67.71
2023-03-29T03:19:04.531Z,67.01
2023-03-29T03:21:35.131Z,67.27
2023-03-29T03:24:07.606Z,68.10
2023-03-29T03:26:35.881Z,68.09
2023-03-29T03:29:02.890Z,68.23
2023-03-29T03:31:33.719Z,68.60
2023-03-29T03:34:03.691Z,68.00
2023-03-29T03:36:31.543Z,68.75
2023-03-29T03:38:58.449Z,68.40
2023-03-29T03:41:26.222Z,68.80
2023-03-29T03:43:53.186Z,68.75
2023-03-29T03:46:20.241Z,69.16
2023-03-29T03:48:48.033Z,68.85
2023-03-29T03:51:15.269Z,69.11
2023-03-29T03:53:42.365Z,69.36
2023-03-29T03:56:09.583Z,69.21
2023-03-29T03:58:37.633Z,69.53
2023-03-29T04:01:05.954Z,69.38
2023-03-29T04:03:32.847Z,68.57
2023-03-29T04:06:03.589Z,68.61
2023-03-29T04:08:30.538Z,68.84
2023-03-29T04:11:01.911Z,67.84
2023-03-29T04:13:29.337Z,67.46
2023-03-29T04:16:00.218Z,67.80
2023-03-29T04:18:31.431Z,68.18
2023-03-29T04:21:01.128Z,67.70
2023-03-29T04:23:32.803Z,68.41
2023-03-29T04:26:02.216Z,68.56
2023-03-29T04:28:31.159Z,69.04
2023-03-29T04:30:58.085Z,69.59
2023-03-29T04:33:25.242Z,69.58
2023-03-29T04:35:52.606Z,68.89
2023-03-29T04:38:23.302Z,68.19
2023-03-29T04:40:50.904Z,68.54
2023-03-29T04:43:17.764Z,68.79
2023-03-29T04:45:44.763Z,68.50
2023-03-29T04:48:11.751Z,68.29
2023-03-29T04:50:41.497Z,68.16
2023-03-29T04:53:08.477Z,68.87
2023-03-29T04:55:40.326Z,68.22
2023-03-29T04:58:10.082Z,68.53
2023-03-29T05:00:39.874Z,68.82
2023-03-29T05:03:13.406Z,69.11
2023-03-29T05:05:43.528Z,69.84
2023-03-29T05:08:10.623Z,70.03
2023-03-29T05:10:43.329Z,70.09
2023-03-29T05:13:11.205Z,69.57
2023-03-29T05:15:41.778Z,70.05
2023-03-29T05:18:13.429Z,70.45
2023-03-29T05:20:43.297Z,69.72
2023-03-29T05:23:10.486Z,69.47
2023-03-29T05:25:40.517Z,69.15
2023-03-29T05:28:07.353Z,69.58
2023-03-29T05:30:34.230Z,69.73
2023-03-29T05:33:05.828Z,69.73
2023-03-29T05:35:33.750Z,68.70
2023-03-29T05:38:00.880Z,69.88
2023-03-29T05:40:29.550Z,69.91
2023-03-29T05:42:59.650Z,69.95
2023-03-29T05:45:28.586Z,69.70
2023-03-29T05:47:56.783Z,69.77
2023-03-29T05:50:23.751Z,69.74
2023-03-29T05:52:50.732Z,70.35
2023-03-29T05:55:19.962Z,70.78
2023-03-29T05:57:46.909Z,70.36
2023-03-29T06:00:23.809Z,69.40
2023-03-29T06:03:06.404Z,69.55
2023-03-29T06:05:36.941Z,69.68
2023-03-29T06:08:04.060Z,69.44
2023-03-29T06:10:30.969Z,69.82
2023-03-29T06:12:57.879Z,68.83
2023-03-29T06:15:26.973Z,69.09
2023-03-29T06:17:53.974Z,69.38
2023-03-29T06:20:23.327Z,69.50
2023-03-29T06:22:50.229Z,69.37
2023-03-29T06:25:17.611Z,69.05
2023-03-29T06:27:46.688Z,68.55
2023-03-29T06:30:15.659Z,68.13
2023-03-29T06:32:43.144Z,68.28
2023-03-29T06:35:11.015Z,69.40
2023-03-29T06:37:42.645Z,69.30
2023-03-29T06:40:13.015Z,68.94
2023-03-29T06:42:40.018Z,69.60
2023-03-29T06:45:10.412Z,69.77
2023-03-29T06:47:39.655Z,70.48
2023-03-29T06:50:11.637Z,70.28
2023-03-29T06:52:38.698Z,69.53
2023-03-29T06:55:09.227Z,69.10
2023-03-29T06:57:36.135Z,70.03
2023-03-29T07:00:10.401Z,69.40
2023-03-29T07:02:37.770Z,68.12
2023-03-29T07:05:06.970Z,68.04
2023-03-29T07:07:53.534Z,68.33
2023-03-29T07:10:26.167Z,68.30
2023-03-29T07:12:53.590Z,68.07
2023-03-29T07:15:21.847Z,68.09
2023-03-29T07:17:51.713Z,67.70
2023-03-29T07:20:22.871Z,67.65
2023-03-29T07:22:52.929Z,67.28
2023-03-29T07:25:25.178Z,67.72
2023-03-29T07:27:52.182Z,68.18
2023-03-29T07:30:30.266Z,67.85
2023-03-29T07:33:00.823Z,68.11
2023-03-29T07:35:30.932Z,69.03
2023-03-29T07:37:58.517Z,69.43
2023-03-29T07:40:27.337Z,68.88
2023-03-29T07:43:00.271Z,68.44
2023-03-29T07:45:31.029Z,68.87
2023-03-29T07:47:59.446Z,69.18
2023-03-29T07:50:32.614Z,68.23
2023-03-29T07:53:01.374Z,67.22
2023-03-29T07:55:28.729Z,67.70
2023-03-29T07:57:55.829Z,67.22
2023-03-29T08:00:28.256Z,67.17
2023-03-29T08:02:55.882Z,67.68
2023-03-29T08:05:37.829Z,65.89
2023-03-29T08:08:08.079Z,65.83
2023-03-29T08:10:37.333Z,66.11
2023-03-29T08:13:09.750Z,67.83
2023-03-29T08:15:39.175Z,67.91
2023-03-29T08:18:07.810Z,67.07
2023-03-29T08:20:34.978Z,65.74
2023-03-29T08:23:04.075Z,65.54
2023-03-29T08:25:33.243Z,66.23
2023-03-29T08:28:02.576Z,64.90
2023-03-29T08:30:31.962Z,63.23
2023-03-29T08:32:59.037Z,63.02
2023-03-29T08:35:25.921Z,63.57
2023-03-29T08:37:53.147Z,64.37
2023-03-29T08:40:30.177Z,66.54
2023-03-29T08:42:59.795Z,64.86
2023-03-29T08:45:37.630Z,64.96
2023-03-29T08:48:07.616Z,66.16
2023-03-29T08:50:41.203Z,65.52
2023-03-29T08:53:25.345Z,65.08
2023-03-29T08:55:56.335Z,65.91
2023-03-29T08:58:30.053Z,65.84
2023-03-29T09:01:02.949Z,65.92
2023-03-29T09:03:41.729Z,64.87
2023-03-29T09:06:12.696Z,64.13
2023-03-29T09:08:48.383Z,63.64
2023-03-29T09:11:24.053Z,63.08
2023-03-29T09:14:15.011Z,63.67
2023-03-29T09:17:26.497Z,63.24
2023-03-29T09:20:19.751Z,61.55
2023-03-29T09:23:01.647Z,60.72
2023-03-29T09:26:07.459Z,62.19
2023-03-29T09:28:41.392Z,62.75
2023-03-29T09:31:31.019Z,60.18
2023-03-29T09:34:15.327Z,62.15
2023-03-29T09:36:58.650Z,62.71
2023-03-29T09:39:28.417Z,62.12
2023-03-29T09:42:09.485Z,61.65
2023-03-29T09:44:48.262Z,61.89
2023-03-29T09:47:26.333Z,61.38
2023-03-29T09:50:03.219Z,62.64
2023-03-29T09:52:30.303Z,61.92
2023-03-29T09:55:07.888Z,61.45
2023-03-29T09:57:35.058Z,62.04
2023-03-29T10:00:06.134Z,61.79
2023-03-29T10:02:33.662Z,61.76
2023-03-29T10:05:07.400Z,60.82
2023-03-29T10:07:46.199Z,60.91
2023-03-29T10:10:31.924Z,59.26
2023-03-29T10:13:23.158Z,56.87
2023-03-29T10:16:09.541Z,56.14
2023-03-29T10:18:42.430Z,55.56
2023-03-29T10:21:17.658Z,55.88
2023-03-29T10:23:44.598Z,55.89
2023-03-29T10:26:27.928Z,56.63
2023-03-29T10:28:57.268Z,56.46
2023-03-29T10:31:25.829Z,58.50
2023-03-29T10:33:58.584Z,57.43
2023-03-29T10:36:27.813Z,55.79
2023-03-29T10:38:59.391Z,57.20
2023-03-29T10:41:28.069Z,57.90
2023-03-29T10:43:55.334Z,57.25
2023-03-29T10:46:30.223Z,58.94
2023-03-29T10:49:06.102Z,60.22
2023-03-29T10:51:36.646Z,60.85
2023-03-29T10:54:06.760Z,61.20
2023-03-29T10:56:41.998Z,60.81
2023-03-29T10:59:29.716Z,59.43
2023-03-29T11:02:15.176Z,60.38
2023-03-29T11:05:20.236Z,63.00
2023-03-29T11:08:17.907Z,64.14
2023-03-29T11:11:49.356Z,62.33
2023-03-29T11:14:37.521Z,63.81
2023-03-29T11:17:44.594Z,62.29
2023-03-29T11:20:27.648Z,63.50
2023-03-29T11:23:11.986Z,61.38
2023-03-29T11:26:09.729Z,60.54
2023-03-29T11:28:57.156Z,60.10
2023-03-29T11:31:52.529Z,59.90
2023-03-29T11:35:00.019Z,61.27
2023-03-29T11:37:57.348Z,61.33
2023-03-29T11:40:50.185Z,60.09
2023-03-29T11:43:56.715Z,59.46
2023-03-29T11:46:49.345Z,58.64
2023-03-29T11:49:29.411Z,58.93
2023-03-29T11:52:22.516Z,58.95
2023-03-29T11:55:05.655Z,60.35
2023-03-29T11:58:00.951Z,60.15
2023-03-29T12:00:35.010Z,61.07
2023-03-29T12:03:37.182Z,61.13
2023-03-29T12:06:31.877Z,60.77
2023-03-29T12:09:14.243Z,59.96
2023-03-29T12:11:47.853Z,59.06
2023-03-29T12:14:21.312Z,57.80
2023-03-29T12:17:05.631Z,59.83
2023-03-29T12:19:58.982Z,58.82
2023-03-29T12:22:28.668Z,60.18
2023-03-29T12:24:59.632Z,56.92
2023-03-29T12:27:35.797Z,56.29
2023-03-29T12:30:35.374Z,58.70
2023-03-29T12:33:32.583Z,56.27
2023-03-29T12:36:27.795Z,55.73
2023-03-29T12:38:54.893Z,54.96
2023-03-29T12:41:26.450Z,54.96
2023-03-29T12:43:54.027Z,56.59
2023-03-29T12:46:31.360Z,55.95
2023-03-29T12:49:09.528Z,56.77
2023-03-29T12:51:40.678Z,58.76
2023-03-29T12:54:22.333Z,58.06
2023-03-29T12:56:54.625Z,57.54
2023-03-29T12:59:25.609Z,56.86
2023-03-29T13:02:03.008Z,55.63
2023-03-29T13:04:57.194Z,56.30
2023-03-29T13:07:26.501Z,57.69
2023-03-29T13:09:56.149Z,57.48
2023-03-29T13:12:30.259Z,58.34
2023-03-29T13:15:03.585Z,60.23
2023-03-29T13:18:01.747Z,59.47
2023-03-29T13:20:48.114Z,59.65
2023-03-29T13:23:42.123Z,61.27
2023-03-29T13:26:27.273Z,63.67
2023-03-29T13:29:23.099Z,62.35
2023-03-29T13:32:22.233Z,60.57
2023-03-29T13:34:56.799Z,60.44
2023-03-29T13:38:00.444Z,61.55
2023-03-29T13:40:30.411Z,62.30
2023-03-29T13:43:10.592Z,62.74
2023-03-29T13:45:40.489Z,61.75
2023-03-29T13:48:27.527Z,62.02
2023-03-29T13:51:21.895Z,62.54
2023-03-29T13:54:38.365Z,61.06
2023-03-29T13:57:09.002Z,61.90
2023-03-29T13:59:56.078Z,62.89
2023-03-29T14:02:42.221Z,61.94
2023-03-29T14:05:18.047Z,61.31
2023-03-29T14:07:53.063Z,61.63
2023-03-29T14:10:40.950Z,61.55
2023-03-29T14:13:17.389Z,59.51
2023-03-29T14:16:09.168Z,61.79
2023-03-29T14:18:44.666Z,61.55
2023-03-29T14:21:14.298Z,61.34
2023-03-29T14:23:47.100Z,62.11
2023-03-29T14:26:23.461Z,61.59
2023-03-29T14:28:53.990Z,63.00
2023-03-29T14:31:30.328Z,62.64
2023-03-29T14:34:03.109Z,61.78
2023-03-29T14:36:33.428Z,63.49
2023-03-29T14:39:16.232Z,63.12
2023-03-29T14:41:50.844Z,64.28
2023-03-29T14:44:20.458Z,64.42
2023-03-29T14:46:50.675Z,62.80
2023-03-29T14:49:20.686Z,61.87
2023-03-29T14:51:49.486Z,62.75
2023-03-29T14:54:24.456Z,61.72
2023-03-29T14:56:52.625Z,61.27
2023-03-29T14:59:38.813Z,62.01
2023-03-29T15:02:49.424Z,60.28
2023-03-29T15:05:33.365Z,62.86
2023-03-29T15:08:02.758Z,64.67
2023-03-29T15:10:35.521Z,65.62
2023-03-29T15:13:08.599Z,64.02
2023-03-29T15:15:38.868Z,62.78
2023-03-29T15:18:08.194Z,61.55
2023-03-29T15:20:39.019Z,62.70
2023-03-29T15:23:21.945Z,64.94
2023-03-29T15:25:59.195Z,64.37
2023-03-29T15:28:34.666Z,65.27
2023-03-29T15:31:13.483Z,65.27
2023-03-29T15:33:42.217Z,65.52
2023-03-29T15:36:12.828Z,64.90
2023-03-29T15:38:49.453Z,65.21
2023-03-29T15:41:16.600Z,65.71
2023-03-29T15:43:44.006Z,66.40
2023-03-29T15:46:14.453Z,65.78
2023-03-29T15:48:49.003Z,65.25
2023-03-29T15:51:16.904Z,64.87
2023-03-29T15:53:43.967Z,64.19
2023-03-29T15:56:18.332Z,64.30
2023-03-29T15:58:46.396Z,64.87
2023-03-29T16:01:37.565Z,65.00
2023-03-29T16:04:14.211Z,65.71
2023-03-29T16:06:43.633Z,66.42
2023-03-29T16:09:14.767Z,66.79
2023-03-29T16:11:46.608Z,66.55
2023-03-29T16:14:31.391Z,66.80
2023-03-29T16:17:03.266Z,67.51
2023-03-29T16:19:31.941Z,66.82
2023-03-29T16:22:01.239Z,67.84
2023-03-29T16:24:31.902Z,66.92
2023-03-29T16:27:01.457Z,68.01
2023-03-29T16:29:33.381Z,68.65
2023-03-29T16:32:01.269Z,68.10
2023-03-29T16:34:28.533Z,67.18
2023-03-29T16:36:58.106Z,68.75
2023-03-29T16:39:29.804Z,68.85
2023-03-29T16:41:56.877Z,69.13
2023-03-29T16:44:25.665Z,69.12
2023-03-29T16:46:58.578Z,68.87
2023-03-29T16:49:28.667Z,68.01
2023-03-29T16:52:00.170Z,69.15
2023-03-29T16:54:31.625Z,70.95
2023-03-29T16:56:59.046Z,70.40
2023-03-29T16:59:31.822Z,70.56
2023-03-29T17:01:59.000Z,69.80
2023-03-29T17:04:26.529Z,70.08
2023-03-29T17:06:53.558Z,69.77
2023-03-29T17:09:29.305Z,71.17
2023-03-29T17:11:57.170Z,70.55
2023-03-29T17:14:25.453Z,71.23
2023-03-29T17:16:53.633Z,71.42
2023-03-29T17:19:20.725Z,71.18
2023-03-29T17:21:47.883Z,71.51
2023-03-29T17:24:14.895Z,71.95
2023-03-29T17:26:45.907Z,71.94
2023-03-29T17:29:15.424Z,72.44
2023-03-29T17:31:48.319Z,72.00
2023-03-29T17:34:19.445Z,72.75
2023-03-29T17:36:49.132Z,72.46
2023-03-29T17:39:18.591Z,71.81
2023-03-29T17:41:48.866Z,72.59
2023-03-29T17:44:15.991Z,73.61
2023-03-29T17:46:43.506Z,73.17
2023-03-29T17:49:16.123Z,74.23
2023-03-29T17:51:43.294Z,74.59
2023-03-29T17:54:10.615Z,74.35
2023-03-29T17:56:37.689Z,75.03
2023-03-29T17:59:05.072Z,74.57
2023-03-29T18:01:35.287Z,73.75
2023-03-29T18:04:05.507Z,75.00
2023-03-29T18:06:32.987Z,75.71
2023-03-29T18:09:01.638Z,75.61
2023-03-29T18:11:29.018Z,75.81
2023-03-29T18:14:00.788Z,76.25
2023-03-29T18:16:30.187Z,76.16
2023-03-29T18:18:57.331Z,75.55
2023-03-29T18:21:27.520Z,76.76
2023-03-29T18:23:57.173Z,77.54
2023-03-29T18:26:25.095Z,76.80
2023-03-29T18:28:52.637Z,75.70
2023-03-29T18:31:20.351Z,75.33
2023-03-29T18:33:47.911Z,75.75
2023-03-29T18:36:15.574Z,76.18
2023-03-29T18:38:44.034Z,76.64
2023-03-29T18:41:13.509Z,75.82
2023-03-29T18:43:41.745Z,76.03
2023-03-29T18:46:08.946Z,75.33
2023-03-29T18:48:39.128Z,74.98
2023-03-29T18:51:11.614Z,74.94
2023-03-29T18:53:41.681Z,74.07
2023-03-29T18:56:08.960Z,74.03
2023-03-29T18:58:36.652Z,74.88
2023-03-29T19:01:07.395Z,75.73
2023-03-29T19:03:35.643Z,75.91
2023-03-29T19:06:07.242Z,75.68
2023-03-29T19:08:41.397Z,75.73
2023-03-29T19:11:14.327Z,77.18
2023-03-29T19:13:46.454Z,77.28
2023-03-29T19:16:13.625Z,78.11
2023-03-29T19:18:40.879Z,78.47
2023-03-29T19:21:10.657Z,78.89
2023-03-29T19:23:38.387Z,79.20
2023-03-29T19:26:09.507Z,78.34
2023-03-29T19:28:36.633Z,79.11
2023-03-29T19:31:05.250Z,78.13
2023-03-29T19:33:32.945Z,77.76
2023-03-29T19:36:00.134Z,78.42
2023-03-29T19:38:28.289Z,77.97
2023-03-29T19:40:55.910Z,78.35
2023-03-29T19:43:29.058Z,79.83
2023-03-29T19:45:56.358Z,79.67
2023-03-29T19:48:25.701Z,79.90
2023-03-29T19:51:03.182Z,79.50
2023-03-29T19:53:31.851Z,80.29
2023-03-29T19:56:04.453Z,79.90
2023-03-29T19:58:34.679Z,79.45
2023-03-29T20:01:01.892Z,78.79
2023-03-29T20:03:29.983Z,79.06
2023-03-29T20:05:57.924Z,79.39
2023-03-29T20:08:25.265Z,79.35
2023-03-29T20:11:10.361Z,80.23
2023-03-29T20:13:45.448Z,80.92
2023-03-29T20:16:18.947Z,80.82
2023-03-29T20:18:46.819Z,80.95
2023-03-29T20:21:16.494Z,81.40
2023-03-29T20:23:46.190Z,81.08
2023-03-29T20:26:13.364Z,81.20
2023-03-29T20:28:40.367Z,80.62
2023-03-29T20:31:11.014Z,80.87
2023-03-29T20:33:38.584Z,82.07
2023-03-29T20:36:11.076Z,80.47
2023-03-29T20:38:45.352Z,81.25
2023-03-29T20:41:13.896Z,81.38
2023-03-29T20:43:43.873Z,80.45
2023-03-29T20:46:22.883Z,81.43
2023-03-29T20:48:56.073Z,81.12
2023-03-29T20:51:28.130Z,81.46
2023-03-29T20:54:02.279Z,82.67
2023-03-29T20:56:35.385Z,82.78
2023-03-29T20:59:11.034Z,82.70
2023-03-29T21:01:40.548Z,82.26
2023-03-29T21:04:10.963Z,81.92
2023-03-29T21:06:41.439Z,82.95
2023-03-29T21:09:08.528Z,81.79
2023-03-29T21:11:40.884Z,81.69
2023-03-29T21:14:10.678Z,81.71
2023-03-29T21:16:42.339Z,82.19
2023-03-29T21:19:10.248Z,82.66
2023-03-29T21:21:41.485Z,83.24
2023-03-29T21:24:10.916Z,83.27
2023-03-29T21:26:38.004Z,83.86
2023-03-29T21:29:10.015Z,82.78
2023-03-29T21:31:37.485Z,83.24
2023-03-29T21:34:09.384Z,83.35
2023-03-29T21:36:36.473Z,83.47
2023-03-29T21:39:03.605Z,85.17
2023-03-29T21:41:33.131Z,84.47
2023-03-29T21:44:00.406Z,85.48
2023-03-29T21:46:27.401Z,84.52
2023-03-29T21:48:54.449Z,87.90
2023-03-29T21:51:23.885Z,89.26
2023-03-29T21:53:53.042Z,89.74
2023-03-29T21:56:19.912Z,89.55
2023-03-29T21:58:49.309Z,89.67
2023-03-29T22:01:16.777Z,90.54
2023-03-29T22:03:44.330Z,90.12
2023-03-29T22:06:15.895Z,90.20
2023-03-29T22:08:46.838Z,91.27
2023-03-29T22:11:17.289Z,91.52
2023-03-29T22:13:44.891Z,94.07
2023-03-29T22:16:18.335Z,96.50
2023-03-29T22:18:50.467Z,96.03
2023-03-29T22:21:26.551Z,96.24
2023-03-29T22:23:56.501Z,94.97
2023-03-29T22:26:30.854Z,95.35
2023-03-29T22:28:59.698Z,97.04
2023-03-29T22:31:28.341Z,97.33
2023-03-29T22:33:56.312Z,96.81
2023-03-29T22:36:25.729Z,97.89
2023-03-29T22:38:56.442Z,98.42
2023-03-29T22:41:26.100Z,97.59
2023-03-29T22:43:55.962Z,97.39
2023-03-29T22:46:24.023Z,96.89
2023-03-29T22:48:51.392Z,98.22
2023-03-29T22:51:19.614Z,98.17
2023-03-29T22:53:49.391Z,96.94
2023-03-29T22:56:17.235Z,98.69
2023-03-29T22:58:45.817Z,98.25
2023-03-29T23:01:17.456Z,99.25
2023-03-29T23:03:44.537Z,100.00
2023-03-29T23:06:13.777Z,100.00
2023-03-29T23:08:40.986Z,100.00
2023-03-29T23:11:08.096Z,100.00
2023-03-29T23:13:38.637Z,100.00
2023-03-29T23:16:06.226Z,100.00
2023-03-29T23:18:37.986Z,100.00
2023-03-29T23:21:06.137Z,100.00
2023-03-29T23:23:36.849Z,100.00
2023-03-29T23:26:07.040Z,100.00
2023-03-29T23:28:34.887Z,100.00
2023-03-29T23:31:09.883Z,100.00
2023-03-29T23:33:41.261Z,100.00
2023-03-29T23:36:14.667Z,100.00
2023-03-29T23:38:46.739Z,100.00
2023-03-29T23:41:14.323Z,100.00
2023-03-29T23:43:43.912Z,100.00
2023-03-29T23:46:16.848Z,100.00
2023-03-29T23:48:49.224Z,100.00
2023-03-29T23:51:23.287Z,100.00
2023-03-29T23:53:53.229Z,100.00
2023-03-29T23:56:21.717Z,100.00
2023-03-29T23:58:49.217Z,100.00
